sensor_id;sensor_type;location;lat;lon;timestamp;pressure;altitude;pressure_sealevel;temperature;humidity
21902;BME280;11115;46.038;14.612;2022-11-11T00:02:22;100155.56;;;9.90;100.00
21902;BME280;11115;46.038;14.612;2022-11-11T00:05:12;100158.91;;;9.92;100.00
21902;BME280;11115;46.038;14.612;2022-11-11T00:08:03;100153.88;;;9.84;100.00
21902;BME280;11115;46.038;14.612;2022-11-11T00:11:08;100148.66;;;9.87;100.00
21902;BME280;11115;46.038;14.612;2022-11-11T00:13:56;100157.06;;;9.70;100.00
21902;BME280;11115;46.038;14.612;2022-11-11T00:16:57;100164.72;;;9.63;100.00
21902;BME280;11115;46.038;14.612;2022-11-11T00:20:04;100161.50;;;9.71;100.00
21902;BME280;11115;46.038;14.612;2022-11-11T00:23:21;100165.25;;;9.60;100.00
21902;BME280;11115;46.038;14.612;2022-11-11T00:26:26;100165.78;;;9.57;100.00
21902;BME280;11115;46.038;14.612;2022-11-11T00:29:26;100167.13;;;9.55;100.00
21902;BME280;11115;46.038;14.612;2022-11-11T00:32:22;100173.97;;;9.47;100.00
21902;BME280;11115;46.038;14.612;2022-11-11T00:35:17;100161.59;;;9.55;100.00
21902;BME280;11115;46.038;14.612;2022-11-11T00:38:23;100172.31;;;9.46;100.00
21902;BME280;11115;46.038;14.612;2022-11-11T00:41:31;100176.25;;;9.55;100.00
21902;BME280;11115;46.038;14.612;2022-11-11T00:44:28;100186.38;;;9.71;100.00
21902;BME280;11115;46.038;14.612;2022-11-11T00:47:23;100179.50;;;9.79;100.00
21902;BME280;11115;46.038;14.612;2022-11-11T00:50:28;100183.69;;;9.82;100.00
21902;BME280;11115;46.038;14.612;2022-11-11T00:53:37;100187.59;;;9.86;100.00
21902;BME280;11115;46.038;14.612;2022-11-11T00:56:27;100190.38;;;9.86;100.00
21902;BME280;11115;46.038;14.612;2022-11-11T00:59:23;100194.75;;;9.82;100.00
21902;BME280;11115;46.038;14.612;2022-11-11T01:02:13;100191.41;;;9.80;100.00
21902;BME280;11115;46.038;14.612;2022-11-11T01:05:02;100181.72;;;9.77;100.00
21902;BME280;11115;46.038;14.612;2022-11-11T01:07:49;100180.34;;;9.80;100.00
21902;BME280;11115;46.038;14.612;2022-11-11T01:10:39;100173.22;;;9.84;100.00
21902;BME280;11115;46.038;14.612;2022-11-11T01:13:33;100161.00;;;9.80;100.00
21902;BME280;11115;46.038;14.612;2022-11-11T01:16:24;100169.84;;;9.82;100.00
21902;BME280;11115;46.038;14.612;2022-11-11T01:19:12;100163.75;;;9.80;100.00
21902;BME280;11115;46.038;14.612;2022-11-11T01:22:09;100167.53;;;9.68;100.00
21902;BME280;11115;46.038;14.612;2022-11-11T01:25:04;100173.06;;;9.68;100.00
21902;BME280;11115;46.038;14.612;2022-11-11T01:28:06;100174.78;;;9.74;100.00
21902;BME280;11115;46.038;14.612;2022-11-11T01:31:11;100177.31;;;9.81;100.00
21902;BME280;11115;46.038;14.612;2022-11-11T01:33:59;100179.13;;;9.65;100.00
21902;BME280;11115;46.038;14.612;2022-11-11T01:36:46;100168.91;;;9.66;100.00
21902;BME280;11115;46.038;14.612;2022-11-11T01:39:35;100167.31;;;9.75;100.00
21902;BME280;11115;46.038;14.612;2022-11-11T01:42:23;100158.75;;;9.77;100.00
21902;BME280;11115;46.038;14.612;2022-11-11T01:52:35;100148.22;;;9.68;100.00
21902;BME280;11115;46.038;14.612;2022-11-11T01:55:29;100152.06;;;9.67;100.00
21902;BME280;11115;46.038;14.612;2022-11-11T01:58:20;100155.16;;;9.76;100.00
21902;BME280;11115;46.038;14.612;2022-11-11T02:01:16;100142.19;;;9.77;100.00
21902;BME280;11115;46.038;14.612;2022-11-11T02:04:06;100132.78;;;9.78;100.00
21902;BME280;11115;46.038;14.612;2022-11-11T02:07:17;100139.72;;;9.80;100.00
21902;BME280;11115;46.038;14.612;2022-11-11T02:10:10;100128.28;;;9.66;100.00
21902;BME280;11115;46.038;14.612;2022-11-11T02:13:08;100136.59;;;9.66;100.00
21902;BME280;11115;46.038;14.612;2022-11-11T02:16:19;100123.88;;;9.65;100.00
21902;BME280;11115;46.038;14.612;2022-11-11T02:19:07;100129.88;;;9.62;100.00
21902;BME280;11115;46.038;14.612;2022-11-11T02:21:59;100122.94;;;9.55;100.00
21902;BME280;11115;46.038;14.612;2022-11-11T02:24:51;100123.53;;;9.62;100.00
21902;BME280;11115;46.038;14.612;2022-11-11T02:27:42;100129.97;;;9.67;100.00
21902;BME280;11115;46.038;14.612;2022-11-11T02:30:34;100122.69;;;9.61;100.00
21902;BME280;11115;46.038;14.612;2022-11-11T02:33:24;100131.00;;;9.61;100.00
21902;BME280;11115;46.038;14.612;2022-11-11T02:36:14;100135.94;;;9.59;100.00
21902;BME280;11115;46.038;14.612;2022-11-11T02:39:09;100127.09;;;9.57;100.00
21902;BME280;11115;46.038;14.612;2022-11-11T02:42:18;100133.72;;;9.56;100.00
21902;BME280;11115;46.038;14.612;2022-11-11T02:45:17;100115.84;;;9.37;100.00
21902;BME280;11115;46.038;14.612;2022-11-11T02:48:08;100127.31;;;9.51;100.00
21902;BME280;11115;46.038;14.612;2022-11-11T02:50:59;100114.75;;;9.38;100.00
21902;BME280;11115;46.038;14.612;2022-11-11T02:53:54;100133.38;;;9.48;100.00
21902;BME280;11115;46.038;14.612;2022-11-11T02:56:51;100134.72;;;9.45;100.00
21902;BME280;11115;46.038;14.612;2022-11-11T02:59:59;100139.09;;;9.41;100.00
21902;BME280;11115;46.038;14.612;2022-11-11T03:02:48;100113.03;;;9.32;100.00
21902;BME280;11115;46.038;14.612;2022-11-11T03:05:45;100127.50;;;9.44;100.00
21902;BME280;11115;46.038;14.612;2022-11-11T03:08:40;100135.72;;;9.34;100.00
21902;BME280;11115;46.038;14.612;2022-11-11T03:11:32;100135.16;;;9.32;100.00
21902;BME280;11115;46.038;14.612;2022-11-11T03:14:25;100135.41;;;9.30;100.00
21902;BME280;11115;46.038;14.612;2022-11-11T03:17:19;100134.88;;;9.33;100.00
21902;BME280;11115;46.038;14.612;2022-11-11T03:20:23;100127.44;;;9.34;100.00
21902;BME280;11115;46.038;14.612;2022-11-11T03:23:27;100130.19;;;9.34;100.00
21902;BME280;11115;46.038;14.612;2022-11-11T03:26:29;100132.81;;;9.46;100.00
21902;BME280;11115;46.038;14.612;2022-11-11T03:29:30;100142.94;;;9.40;100.00
21902;BME280;11115;46.038;14.612;2022-11-11T03:32:26;100146.28;;;9.42;100.00
21902;BME280;11115;46.038;14.612;2022-11-11T03:35:15;100148.38;;;9.30;100.00
21902;BME280;11115;46.038;14.612;2022-11-11T03:38:13;100152.31;;;9.39;100.00
21902;BME280;11115;46.038;14.612;2022-11-11T03:41:09;100140.03;;;9.25;100.00
21902;BME280;11115;46.038;14.612;2022-11-11T03:44:03;100163.34;;;9.34;100.00
21902;BME280;11115;46.038;14.612;2022-11-11T03:46:55;100162.75;;;9.32;100.00
21902;BME280;11115;46.038;14.612;2022-11-11T03:49:50;100163.03;;;9.30;100.00
21902;BME280;11115;46.038;14.612;2022-11-11T03:52:45;100155.88;;;9.34;100.00
21902;BME280;11115;46.038;14.612;2022-11-11T03:55:37;100140.50;;;9.17;100.00
21902;BME280;11115;46.038;14.612;2022-11-11T03:58:24;100161.28;;;9.24;100.00
21902;BME280;11115;46.038;14.612;2022-11-11T04:01:25;100141.94;;;9.24;100.00
21902;BME280;11115;46.038;14.612;2022-11-11T04:04:30;100156.81;;;9.18;100.00
21902;BME280;11115;46.038;14.612;2022-11-11T04:07:38;100152.41;;;9.22;100.00
21902;BME280;11115;46.038;14.612;2022-11-11T04:10:45;100148.56;;;9.23;100.00
21902;BME280;11115;46.038;14.612;2022-11-11T04:13:42;100155.88;;;9.34;100.00
21902;BME280;11115;46.038;14.612;2022-11-11T04:16:50;100159.94;;;9.27;100.00
21902;BME280;11115;46.038;14.612;2022-11-11T04:19:46;100157.75;;;9.29;100.00
21902;BME280;11115;46.038;14.612;2022-11-11T04:22:54;100165.25;;;9.33;100.00
21902;BME280;11115;46.038;14.612;2022-11-11T04:25:59;100156.72;;;9.35;100.00
21902;BME280;11115;46.038;14.612;2022-11-11T04:28:48;100155.56;;;9.31;100.00
21902;BME280;11115;46.038;14.612;2022-11-11T04:32:00;100166.34;;;9.32;100.00
21902;BME280;11115;46.038;14.612;2022-11-11T04:35:06;100160.66;;;9.44;100.00
21902;BME280;11115;46.038;14.612;2022-11-11T04:37:59;100159.91;;;9.49;100.00
21902;BME280;11115;46.038;14.612;2022-11-11T04:41:03;100153.72;;;9.41;100.00
21902;BME280;11115;46.038;14.612;2022-11-11T04:44:06;100156.84;;;9.45;100.00
21902;BME280;11115;46.038;14.612;2022-11-11T04:47:15;100148.94;;;9.32;100.00
21902;BME280;11115;46.038;14.612;2022-11-11T04:50:05;100153.72;;;9.41;100.00
21902;BME280;11115;46.038;14.612;2022-11-11T04:52:57;100151.66;;;9.54;100.00
21902;BME280;11115;46.038;14.612;2022-11-11T04:55:47;100134.31;;;9.31;100.00
21902;BME280;11115;46.038;14.612;2022-11-11T04:58:53;100144.09;;;9.44;100.00
21902;BME280;11115;46.038;14.612;2022-11-11T05:01:57;100154.00;;;9.40;100.00
21902;BME280;11115;46.038;14.612;2022-11-11T05:05:00;100166.72;;;9.41;100.00
21902;BME280;11115;46.038;14.612;2022-11-11T05:07:49;100161.19;;;9.41;100.00
21902;BME280;11115;46.038;14.612;2022-11-11T05:10:56;100159.00;;;9.43;100.00
21902;BME280;11115;46.038;14.612;2022-11-11T05:13:47;100167.63;;;9.47;100.00
21902;BME280;11115;46.038;14.612;2022-11-11T05:16:56;100173.44;;;9.50;100.00
21902;BME280;11115;46.038;14.612;2022-11-11T05:20:03;100169.72;;;9.39;100.00
21902;BME280;11115;46.038;14.612;2022-11-11T05:23:10;100180.78;;;9.39;100.00
21902;BME280;11115;46.038;14.612;2022-11-11T05:26:00;100188.53;;;9.42;100.00
21902;BME280;11115;46.038;14.612;2022-11-11T05:28:47;100188.53;;;9.42;100.00
21902;BME280;11115;46.038;14.612;2022-11-11T05:31:38;100178.50;;;9.31;100.00
21902;BME280;11115;46.038;14.612;2022-11-11T05:34:36;100191.75;;;9.29;100.00
21902;BME280;11115;46.038;14.612;2022-11-11T05:37:23;100196.47;;;9.34;100.00
21902;BME280;11115;46.038;14.612;2022-11-11T05:40:19;100201.53;;;9.42;100.00
21902;BME280;11115;46.038;14.612;2022-11-11T05:43:21;100207.31;;;9.40;100.00
21902;BME280;11115;46.038;14.612;2022-11-11T05:46:15;100194.81;;;9.33;100.00
21902;BME280;11115;46.038;14.612;2022-11-11T05:49:19;100216.56;;;9.51;100.00
21902;BME280;11115;46.038;14.612;2022-11-11T05:52:15;100214.69;;;9.57;100.00
21902;BME280;11115;46.038;14.612;2022-11-11T05:55:07;100217.66;;;9.50;100.00
21902;BME280;11115;46.038;14.612;2022-11-11T05:58:05;100197.06;;;9.36;100.00
21902;BME280;11115;46.038;14.612;2022-11-11T06:01:05;100214.84;;;9.45;100.00
21902;BME280;11115;46.038;14.612;2022-11-11T06:03:54;100222.78;;;9.41;100.00
21902;BME280;11115;46.038;14.612;2022-11-11T06:06:44;100231.91;;;9.42;100.00
21902;BME280;11115;46.038;14.612;2022-11-11T06:09:32;100235.41;;;9.32;100.00
21902;BME280;11115;46.038;14.612;2022-11-11T06:12:26;100231.28;;;9.35;100.00
21902;BME280;11115;46.038;14.612;2022-11-11T06:15:39;100244.31;;;9.39;100.00
21902;BME280;11115;46.038;14.612;2022-11-11T06:18:30;100239.72;;;9.45;100.00
21902;BME280;11115;46.038;14.612;2022-11-11T06:21:27;100247.34;;;9.38;100.00
21902;BME280;11115;46.038;14.612;2022-11-11T06:24:23;100246.00;;;9.40;100.00
21902;BME280;11115;46.038;14.612;2022-11-11T06:27:19;100260.78;;;9.51;100.00
21902;BME280;11115;46.038;14.612;2022-11-11T06:30:15;100264.31;;;9.47;100.00
21902;BME280;11115;46.038;14.612;2022-11-11T06:33:25;100269.38;;;9.55;100.00
21902;BME280;11115;46.038;14.612;2022-11-11T06:36:21;100244.25;;;9.34;100.00
21902;BME280;11115;46.038;14.612;2022-11-11T06:39:08;100277.41;;;9.56;100.00
21902;BME280;11115;46.038;14.612;2022-11-11T06:41:57;100274.53;;;9.46;100.00
21902;BME280;11115;46.038;14.612;2022-11-11T06:44:48;100265.47;;;9.29;100.00
21902;BME280;11115;46.038;14.612;2022-11-11T06:47:44;100267.97;;;9.30;100.00
21902;BME280;11115;46.038;14.612;2022-11-11T06:50:35;100276.91;;;9.37;100.00
21902;BME280;11115;46.038;14.612;2022-11-11T06:53:22;100276.94;;;9.42;100.00
21902;BME280;11115;46.038;14.612;2022-11-11T06:56:17;100276.91;;;9.37;100.00
21902;BME280;11115;46.038;14.612;2022-11-11T06:59:13;100277.16;;;9.36;100.00
21902;BME280;11115;46.038;14.612;2022-11-11T07:02:01;100254.34;;;9.24;100.00
21902;BME280;11115;46.038;14.612;2022-11-11T07:04:50;100293.53;;;9.42;100.00
21902;BME280;11115;46.038;14.612;2022-11-11T07:07:43;100290.28;;;9.46;100.00
21902;BME280;11115;46.038;14.612;2022-11-11T07:10:37;100291.84;;;9.41;100.00
21902;BME280;11115;46.038;14.612;2022-11-11T07:13:39;100297.19;;;9.48;100.00
21902;BME280;11115;46.038;14.612;2022-11-11T07:16:27;100299.03;;;9.42;100.00
21902;BME280;11115;46.038;14.612;2022-11-11T07:19:17;100286.00;;;9.38;100.00
21902;BME280;11115;46.038;14.612;2022-11-11T07:22:04;100283.00;;;9.39;100.00
21902;BME280;11115;46.038;14.612;2022-11-11T07:25:01;100287.75;;;9.44;100.00
21902;BME280;11115;46.038;14.612;2022-11-11T07:27:57;100304.97;;;9.51;100.00
21902;BME280;11115;46.038;14.612;2022-11-11T07:30:48;100277.78;;;9.43;100.00
21902;BME280;11115;46.038;14.612;2022-11-11T07:33:42;100300.03;;;9.53;100.00
21902;BME280;11115;46.038;14.612;2022-11-11T07:36:34;100298.34;;;9.52;100.00
21902;BME280;11115;46.038;14.612;2022-11-11T07:39:30;100265.28;;;9.35;100.00
21902;BME280;11115;46.038;14.612;2022-11-11T07:42:20;100302.41;;;9.66;100.00
21902;BME280;11115;46.038;14.612;2022-11-11T07:45:23;100293.66;;;9.53;100.00
21902;BME280;11115;46.038;14.612;2022-11-11T07:48:19;100286.69;;;9.45;100.00
21902;BME280;11115;46.038;14.612;2022-11-11T07:51:10;100300.34;;;9.57;100.00
21902;BME280;11115;46.038;14.612;2022-11-11T07:53:58;100305.72;;;9.68;100.00
21902;BME280;11115;46.038;14.612;2022-11-11T07:57:07;100289.28;;;9.57;100.00
21902;BME280;11115;46.038;14.612;2022-11-11T07:59:57;100299.56;;;9.61;100.00
21902;BME280;11115;46.038;14.612;2022-11-11T08:02:51;100299.09;;;9.69;100.00
21902;BME280;11115;46.038;14.612;2022-11-11T08:05:44;100308.81;;;9.72;100.00
21902;BME280;11115;46.038;14.612;2022-11-11T08:08:32;100295.38;;;9.59;100.00
21902;BME280;11115;46.038;14.612;2022-11-11T08:11:19;100302.72;;;9.70;100.00
21902;BME280;11115;46.038;14.612;2022-11-11T08:14:26;100307.75;;;9.78;100.00
21902;BME280;11115;46.038;14.612;2022-11-11T08:17:15;100311.50;;;9.89;100.00
21902;BME280;11115;46.038;14.612;2022-11-11T08:20:17;100316.44;;;9.87;100.00
21902;BME280;11115;46.038;14.612;2022-11-11T08:23:14;100310.53;;;9.78;100.00
21902;BME280;11115;46.038;14.612;2022-11-11T08:26:30;100322.38;;;9.73;100.00
21902;BME280;11115;46.038;14.612;2022-11-11T08:29:19;100316.88;;;9.79;100.00
21902;BME280;11115;46.038;14.612;2022-11-11T08:32:17;100327.63;;;9.75;100.00
21902;BME280;11115;46.038;14.612;2022-11-11T08:35:05;100322.63;;;9.72;100.00
21902;BME280;11115;46.038;14.612;2022-11-11T08:38:12;100310.59;;;9.61;100.00
21902;BME280;11115;46.038;14.612;2022-11-11T08:41:09;100290.69;;;9.59;100.00
21902;BME280;11115;46.038;14.612;2022-11-11T08:44:01;100310.22;;;9.74;100.00
21902;BME280;11115;46.038;14.612;2022-11-11T08:46:52;100313.34;;;9.83;100.00
21902;BME280;11115;46.038;14.612;2022-11-11T08:49:46;100312.38;;;9.94;100.00
21902;BME280;11115;46.038;14.612;2022-11-11T08:52:37;100317.94;;;9.99;100.00
21902;BME280;11115;46.038;14.612;2022-11-11T08:55:31;100313.66;;;10.14;100.00
21902;BME280;11115;46.038;14.612;2022-11-11T08:58:19;100318.91;;;10.10;100.00
21902;BME280;11115;46.038;14.612;2022-11-11T09:01:13;100313.94;;;10.12;100.00
21902;BME280;11115;46.038;14.612;2022-11-11T09:04:02;100295.78;;;9.94;100.00
21902;BME280;11115;46.038;14.612;2022-11-11T09:07:11;100320.59;;;10.16;100.00
21902;BME280;11115;46.038;14.612;2022-11-11T09:10:00;100318.91;;;10.10;100.00
21902;BME280;11115;46.038;14.612;2022-11-11T09:13:00;100314.75;;;10.13;100.00
21902;BME280;11115;46.038;14.612;2022-11-11T09:15:57;100316.75;;;10.17;100.00
21902;BME280;11115;46.038;14.612;2022-11-11T09:18:53;100317.91;;;10.21;100.00
21902;BME280;11115;46.038;14.612;2022-11-11T09:21:50;100323.56;;;10.31;100.00
21902;BME280;11115;46.038;14.612;2022-11-11T09:24:49;100319.66;;;10.27;100.00
21902;BME280;11115;46.038;14.612;2022-11-11T09:27:43;100327.63;;;10.56;100.00
21902;BME280;11115;46.038;14.612;2022-11-11T09:30:39;100331.44;;;10.45;100.00
21902;BME280;11115;46.038;14.612;2022-11-11T09:33:27;100332.25;;;10.45;100.00
21902;BME280;11115;46.038;14.612;2022-11-11T09:36:22;100340.44;;;10.62;100.00
21902;BME280;11115;46.038;14.612;2022-11-11T09:39:08;100347.38;;;10.64;100.00
21902;BME280;11115;46.038;14.612;2022-11-11T09:45:31;100353.78;;;10.70;100.00
21902;BME280;11115;46.038;14.612;2022-11-11T09:48:37;100341.34;;;10.73;100.00
21902;BME280;11115;46.038;14.612;2022-11-11T09:52:15;100338.25;;;10.69;100.00
21902;BME280;11115;46.038;14.612;2022-11-11T09:55:34;100336.88;;;10.67;100.00
21902;BME280;11115;46.038;14.612;2022-11-11T09:58:31;100334.50;;;10.80;100.00
21902;BME280;11115;46.038;14.612;2022-11-11T10:01:38;100336.66;;;10.78;100.00
21902;BME280;11115;46.038;14.612;2022-11-11T10:05:04;100339.53;;;10.88;100.00
21902;BME280;11115;46.038;14.612;2022-11-11T10:08:00;100339.00;;;10.97;100.00
21902;BME280;11115;46.038;14.612;2022-11-11T10:10:58;100328.47;;;10.93;100.00
21902;BME280;11115;46.038;14.612;2022-11-11T10:13:48;100326.94;;;11.13;100.00
21902;BME280;11115;46.038;14.612;2022-11-11T10:20:28;100320.19;;;10.99;100.00
21902;BME280;11115;46.038;14.612;2022-11-11T10:23:29;100303.34;;;11.05;100.00
21902;BME280;11115;46.038;14.612;2022-11-11T10:26:39;100316.97;;;11.17;100.00
21902;BME280;11115;46.038;14.612;2022-11-11T10:29:39;100295.03;;;11.05;100.00
21902;BME280;11115;46.038;14.612;2022-11-11T10:32:35;100309.03;;;11.36;100.00
21902;BME280;11115;46.038;14.612;2022-11-11T10:35:31;100305.69;;;11.29;100.00
21902;BME280;11115;46.038;14.612;2022-11-11T10:38:44;100306.06;;;11.47;100.00
21902;BME280;11115;46.038;14.612;2022-11-11T10:41:48;100307.44;;;11.45;100.00
21902;BME280;11115;46.038;14.612;2022-11-11T10:44:37;100301.03;;;11.39;100.00
21902;BME280;11115;46.038;14.612;2022-11-11T10:50:51;100295.44;;;11.34;100.00
21902;BME280;11115;46.038;14.612;2022-11-11T10:57:10;100286.09;;;11.45;100.00
21902;BME280;11115;46.038;14.612;2022-11-11T11:00:12;100290.53;;;11.46;100.00
21902;BME280;11115;46.038;14.612;2022-11-11T11:03:34;100282.22;;;11.56;100.00
21902;BME280;11115;46.038;14.612;2022-11-11T11:06:28;100280.81;;;11.44;100.00
21902;BME280;11115;46.038;14.612;2022-11-11T11:09:58;100271.75;;;11.64;100.00
21902;BME280;11115;46.038;14.612;2022-11-11T11:13:24;100268.78;;;11.80;100.00
21902;BME280;11115;46.038;14.612;2022-11-11T11:16:23;100272.38;;;11.91;100.00
21902;BME280;11115;46.038;14.612;2022-11-11T11:19:26;100273.53;;;12.05;100.00
21902;BME280;11115;46.038;14.612;2022-11-11T11:22:16;100269.91;;;12.00;100.00
21902;BME280;11115;46.038;14.612;2022-11-11T11:25:20;100277.44;;;12.20;100.00
21902;BME280;11115;46.038;14.612;2022-11-11T11:31:08;100279.13;;;12.36;100.00
21902;BME280;11115;46.038;14.612;2022-11-11T11:34:05;100275.50;;;12.45;100.00
21902;BME280;11115;46.038;14.612;2022-11-11T11:37:01;100272.72;;;12.56;100.00
21902;BME280;11115;46.038;14.612;2022-11-11T11:40:01;100265.47;;;12.65;100.00
21902;BME280;11115;46.038;14.612;2022-11-11T11:42:48;100268.81;;;12.62;100.00
21902;BME280;11115;46.038;14.612;2022-11-11T11:45:38;100270.22;;;12.64;100.00
21902;BME280;11115;46.038;14.612;2022-11-11T11:52:06;100259.38;;;12.78;100.00
21902;BME280;11115;46.038;14.612;2022-11-11T11:55:24;100259.31;;;12.98;100.00
21902;BME280;11115;46.038;14.612;2022-11-11T12:01:59;100247.00;;;13.35;100.00
21902;BME280;11115;46.038;14.612;2022-11-11T12:05:20;100236.13;;;13.39;100.00
21902;BME280;11115;46.038;14.612;2022-11-11T12:21:26;100205.03;;;14.78;100.00
21902;BME280;11115;46.038;14.612;2022-11-11T12:27:50;100202.66;;;14.66;100.00
21902;BME280;11115;46.038;14.612;2022-11-11T12:31:14;100204.81;;;14.06;100.00
21902;BME280;11115;46.038;14.612;2022-11-11T12:34:23;100203.56;;;14.22;100.00
21902;BME280;11115;46.038;14.612;2022-11-11T12:37:54;100204.41;;;14.23;100.00
21902;BME280;11115;46.038;14.612;2022-11-11T12:41:29;100192.50;;;14.17;100.00
21902;BME280;11115;46.038;14.612;2022-11-11T12:44:28;100199.13;;;14.55;100.00
21902;BME280;11115;46.038;14.612;2022-11-11T12:51:05;100202.97;;;13.96;100.00
21902;BME280;11115;46.038;14.612;2022-11-11T13:00:21;100199.00;;;14.08;100.00
21902;BME280;11115;46.038;14.612;2022-11-11T13:12:34;100181.00;;;13.95;100.00
21902;BME280;11115;46.038;14.612;2022-11-11T13:15:32;100178.03;;;13.81;100.00
21902;BME280;11115;46.038;14.612;2022-11-11T13:18:36;100181.44;;;13.73;100.00
21902;BME280;11115;46.038;14.612;2022-11-11T13:21:52;100197.22;;;14.17;100.00
21902;BME280;11115;46.038;14.612;2022-11-11T13:24:43;100190.06;;;14.06;100.00
21902;BME280;11115;46.038;14.612;2022-11-11T13:27:57;100189.94;;;13.92;100.00
21902;BME280;11115;46.038;14.612;2022-11-11T13:31:20;100184.19;;;13.78;100.00
21902;BME280;11115;46.038;14.612;2022-11-11T13:34:25;100187.84;;;13.68;100.00
21902;BME280;11115;46.038;14.612;2022-11-11T13:37:35;100182.56;;;13.67;100.00
21902;BME280;11115;46.038;14.612;2022-11-11T13:40:42;100175.28;;;13.76;100.00
21902;BME280;11115;46.038;14.612;2022-11-11T13:43:46;100182.31;;;13.63;100.00
21902;BME280;11115;46.038;14.612;2022-11-11T13:46:51;100175.09;;;13.62;100.00
21902;BME280;11115;46.038;14.612;2022-11-11T13:49:57;100177.09;;;13.57;100.00
21902;BME280;11115;46.038;14.612;2022-11-11T13:53:12;100166.97;;;13.27;100.00
21902;BME280;11115;46.038;14.612;2022-11-11T13:56:04;100170.91;;;13.16;100.00
21902;BME280;11115;46.038;14.612;2022-11-11T13:58:56;100173.97;;;13.14;100.00
21902;BME280;11115;46.038;14.612;2022-11-11T14:07:55;100192.69;;;12.83;100.00
21902;BME280;11115;46.038;14.612;2022-11-11T14:10:53;100166.63;;;12.64;100.00
21902;BME280;11115;46.038;14.612;2022-11-11T14:13:51;100184.38;;;12.68;100.00
21902;BME280;11115;46.038;14.612;2022-11-11T14:19:32;100188.56;;;12.75;100.00
21902;BME280;11115;46.038;14.612;2022-11-11T14:22:30;100185.00;;;12.55;100.00
21902;BME280;11115;46.038;14.612;2022-11-11T14:25:25;100178.31;;;12.51;100.00
21902;BME280;11115;46.038;14.612;2022-11-11T14:35:25;100175.06;;;12.18;100.00
21902;BME280;11115;46.038;14.612;2022-11-11T14:41:51;100188.91;;;11.88;100.00
21902;BME280;11115;46.038;14.612;2022-11-11T14:44:44;100198.06;;;11.93;100.00
21902;BME280;11115;46.038;14.612;2022-11-11T14:47:38;100214.38;;;11.74;100.00
21902;BME280;11115;46.038;14.612;2022-11-11T14:53:33;100212.31;;;11.29;100.00
21902;BME280;11115;46.038;14.612;2022-11-11T14:56:26;100202.34;;;11.28;100.00
21902;BME280;11115;46.038;14.612;2022-11-11T14:59:23;100203.47;;;11.37;100.00
21902;BME280;11115;46.038;14.612;2022-11-11T15:02:37;100204.00;;;11.29;100.00
21902;BME280;11115;46.038;14.612;2022-11-11T15:08:57;100192.63;;;11.25;100.00
21902;BME280;11115;46.038;14.612;2022-11-11T15:15:22;100204.94;;;10.87;100.00
21902;BME280;11115;46.038;14.612;2022-11-11T15:21:36;100201.09;;;10.46;100.00
21902;BME280;11115;46.038;14.612;2022-11-11T15:24:48;100208.84;;;10.44;100.00
21902;BME280;11115;46.038;14.612;2022-11-11T15:31:21;100200.81;;;10.11;100.00
21902;BME280;11115;46.038;14.612;2022-11-11T15:34:41;100198.34;;;9.82;100.00
21902;BME280;11115;46.038;14.612;2022-11-11T15:37:38;100207.59;;;9.98;100.00
21902;BME280;11115;46.038;14.612;2022-11-11T15:40:43;100209.88;;;9.74;100.00
21902;BME280;11115;46.038;14.612;2022-11-11T15:43:46;100220.88;;;9.42;100.00
21902;BME280;11115;46.038;14.612;2022-11-11T15:46:41;100224.53;;;9.48;100.00
21902;BME280;11115;46.038;14.612;2022-11-11T15:49:44;100220.28;;;9.40;100.00
21902;BME280;11115;46.038;14.612;2022-11-11T15:52:34;100213.97;;;9.18;100.00
21902;BME280;11115;46.038;14.612;2022-11-11T15:55:33;100231.41;;;9.23;100.00
21902;BME280;11115;46.038;14.612;2022-11-11T15:58:31;100229.66;;;9.39;100.00
21902;BME280;11115;46.038;14.612;2022-11-11T16:01:24;100229.91;;;9.10;100.00
21902;BME280;11115;46.038;14.612;2022-11-11T16:04:19;100238.69;;;9.29;100.00
21902;BME280;11115;46.038;14.612;2022-11-11T16:07:39;100242.03;;;9.31;100.00
21902;BME280;11115;46.038;14.612;2022-11-11T16:10:35;100231.00;;;8.88;100.00
21902;BME280;11115;46.038;14.612;2022-11-11T16:16:44;100242.59;;;8.90;100.00
21902;BME280;11115;46.038;14.612;2022-11-11T16:19:43;100215.31;;;8.93;100.00
21902;BME280;11115;46.038;14.612;2022-11-11T16:22:35;100228.16;;;9.04;100.00
21902;BME280;11115;46.038;14.612;2022-11-11T16:25:28;100230.00;;;8.99;100.00
21902;BME280;11115;46.038;14.612;2022-11-11T16:28:43;100221.94;;;8.92;100.00
21902;BME280;11115;46.038;14.612;2022-11-11T16:31:40;100217.22;;;8.71;100.00
21902;BME280;11115;46.038;14.612;2022-11-11T16:34:34;100225.38;;;8.44;100.00
21902;BME280;11115;46.038;14.612;2022-11-11T16:37:23;100228.72;;;8.46;100.00
21902;BME280;11115;46.038;14.612;2022-11-11T16:43:22;100225.97;;;8.29;100.00
21902;BME280;11115;46.038;14.612;2022-11-11T16:46:40;100238.16;;;8.33;100.00
21902;BME280;11115;46.038;14.612;2022-11-11T16:49:39;100221.69;;;8.21;100.00
21902;BME280;11115;46.038;14.612;2022-11-11T16:52:29;100239.66;;;8.58;100.00
21902;BME280;11115;46.038;14.612;2022-11-11T16:55:37;100238.50;;;8.54;100.00
21902;BME280;11115;46.038;14.612;2022-11-11T16:58:31;100232.78;;;8.27;100.00
21902;BME280;11115;46.038;14.612;2022-11-11T17:01:28;100224.88;;;8.30;100.00
21902;BME280;11115;46.038;14.612;2022-11-11T17:04:17;100229.72;;;8.40;100.00
21902;BME280;11115;46.038;14.612;2022-11-11T17:07:06;100223.38;;;8.39;100.00